Time;durP1;ratioP1;P1;durP2;ratioP2;P2;SDS_P1;SDS_P2;PMS_P1;PMS_P2;Temp;Humidity;BMP_temperature;BMP_pressure;BME280_temperature;BME280_humidity;BME280_pressure;Samples;Min_cycle;Max_cycle;Signal;HPM_P1;HPM_P2
2023/02/15 00:01:39;;;;;;;46.70;20.03;;;;;;;;;;4990292;28;20096;-75
2023/02/15 00:04:06;;;;;;;38.90;17.93;;;;;;;;;;4988331;28;20577;-76
2023/02/15 00:06:33;;;;;;;52.03;21.00;;;;;;;;;;5007516;28;20065;-76
2023/02/15 00:08:59;;;;;;;51.23;20.80;;;;;;;;;;4992353;28;20505;-76
2023/02/15 00:11:39;;;;;;;48.10;19.60;;;;;;;;;;4994365;28;20065;-76
2023/02/15 00:14:21;;;;;;;50.37;21.57;;;;;;;;;;4993812;28;20065;-75
2023/02/15 00:16:48;;;;;;;44.35;19.20;;;;;;;;;;4993930;28;20525;-76
2023/02/15 00:19:16;;;;;;;47.17;19.57;;;;;;;;;;4992129;28;20129;-75
2023/02/15 00:21:42;;;;;;;48.33;20.40;;;;;;;;;;4992943;28;20034;-75
2023/02/15 00:24:10;;;;;;;44.40;19.27;;;;;;;;;;4991928;28;20049;-75
2023/02/15 00:26:38;;;;;;;46.00;18.07;;;;;;;;;;4993650;28;20482;-76
2023/02/15 00:29:03;;;;;;;48.87;19.73;;;;;;;;;;4992070;28;20026;-75
2023/02/15 00:31:31;;;;;;;40.43;17.07;;;;;;;;;;4992456;28;20026;-74
2023/02/15 00:34:10;;;;;;;38.30;17.50;;;;;;;;;;4992116;28;20050;-75
2023/02/15 00:36:36;;;;;;;46.30;18.03;;;;;;;;;;4992334;28;20063;-75
2023/02/15 00:39:01;;;;;;;51.50;19.77;;;;;;;;;;4991635;28;20534;-73
2023/02/15 00:41:27;;;;;;;46.53;19.27;;;;;;;;;;5022814;28;20080;-75
2023/02/15 00:43:52;;;;;;;47.70;18.23;;;;;;;;;;5031401;28;20032;-75
2023/02/15 00:46:18;;;;;;;51.23;20.37;;;;;;;;;;5047947;28;20033;-75
2023/02/15 00:48:43;;;;;;;49.10;19.17;;;;;;;;;;5031263;28;20021;-75
2023/02/15 00:51:09;;;;;;;40.57;16.63;;;;;;;;;;5032474;28;20048;-74
2023/02/15 00:53:34;;;;;;;51.93;19.00;;;;;;;;;;5032942;28;20075;-73
2023/02/15 00:56:00;;;;;;;44.97;19.60;;;;;;;;;;5032303;28;20021;-75
2023/02/15 00:58:25;;;;;;;45.03;18.47;;;;;;;;;;5031073;28;20032;-76
2023/02/15 01:00:52;;;;;;;42.77;18.97;;;;;;;;;;5032478;28;20048;-75
2023/02/15 01:03:19;;;;;;;47.73;18.33;;;;;;;;;;5032208;28;20037;-75
2023/02/15 01:05:46;;;;;;;47.73;17.50;;;;;;;;;;5030873;28;20021;-76
2023/02/15 01:08:12;;;;;;;44.40;18.47;;;;;;;;;;5030720;28;20029;-75
2023/02/15 01:10:38;;;;;;;44.17;17.83;;;;;;;;;;5032455;28;20026;-76
2023/02/15 01:13:03;;;;;;;47.53;18.07;;;;;;;;;;5032539;28;20536;-75
2023/02/15 01:15:29;;;;;;;43.70;18.67;;;;;;;;;;5032262;28;20025;-75
2023/02/15 01:17:55;;;;;;;45.40;18.53;;;;;;;;;;5031739;28;20028;-76
2023/02/15 01:20:24;;;;;;;42.63;17.40;;;;;;;;;;5030898;28;20025;-73
2023/02/15 01:22:50;;;;;;;39.33;17.50;;;;;;;;;;5031992;28;20080;-75
2023/02/15 01:25:22;;;;;;;49.67;19.80;;;;;;;;;;5030671;28;20496;-74
2023/02/15 01:27:48;;;;;;;51.63;18.20;;;;;;;;;;5030877;28;20393;-73
2023/02/15 01:30:14;;;;;;;45.67;18.17;;;;;;;;;;5013910;28;20102;-75
2023/02/15 01:32:42;;;;;;;48.43;17.27;;;;;;;;;;5032301;28;20425;-74
2023/02/15 01:35:08;;;;;;;41.33;18.13;;;;;;;;;;5013641;28;20065;-75
2023/02/15 01:37:34;;;;;;;49.23;19.77;;;;;;;;;;5030257;28;20025;-75
2023/02/15 01:40:01;;;;;;;45.17;18.33;;;;;;;;;;5049067;28;20048;-75
2023/02/15 01:42:28;;;;;;;45.47;17.40;;;;;;;;;;5051528;28;20021;-74
2023/02/15 01:44:58;;;;;;;42.33;17.23;;;;;;;;;;5049755;28;20025;-76
2023/02/15 01:47:29;;;;;;;48.03;18.60;;;;;;;;;;5051105;28;20029;-75
2023/02/15 01:50:04;;;;;;;43.92;17.83;;;;;;;;;;5049650;28;20115;-75
2023/02/15 01:52:30;;;;;;;45.23;17.83;;;;;;;;;;5051128;28;20025;-73
2023/02/15 01:54:56;;;;;;;46.07;17.67;;;;;;;;;;5049556;28;20024;-76
2023/02/15 01:57:25;;;;;;;48.97;18.20;;;;;;;;;;5051394;28;20441;-76
2023/02/15 01:59:56;;;;;;;48.40;19.17;;;;;;;;;;5050911;28;20675;-75
2023/02/15 02:02:24;;;;;;;45.53;18.63;;;;;;;;;;5050915;28;20028;-75
2023/02/15 02:04:57;;;;;;;54.30;19.10;;;;;;;;;;5049632;28;20071;-74
2023/02/15 02:07:28;;;;;;;44.83;19.77;;;;;;;;;;5049698;28;20128;-74
2023/02/15 02:09:54;;;;;;;45.47;19.27;;;;;;;;;;5049421;28;20040;-75
2023/02/15 02:12:21;;;;;;;47.90;18.60;;;;;;;;;;5049413;28;20542;-75
2023/02/15 02:14:48;;;;;;;43.70;17.47;;;;;;;;;;5050750;28;20070;-77
2023/02/15 02:17:40;;;;;;;42.37;17.17;;;;;;;;;;5032656;28;20481;-76
2023/02/15 02:20:15;;;;;;;52.13;18.80;;;;;;;;;;5049445;28;20025;-74
2023/02/15 02:23:01;;;;;;;55.63;19.13;;;;;;;;;;5049763;28;20025;-74
2023/02/15 02:26:04;;;;;;;48.87;18.10;;;;;;;;;;5049271;28;20033;-74
2023/02/15 02:28:39;;;;;;;43.93;16.40;;;;;;;;;;5048425;28;20029;-75
2023/02/15 02:31:32;;;;;;;49.37;17.70;;;;;;;;;;5050711;28;20020;-76
2023/02/15 02:34:17;;;;;;;43.20;17.50;;;;;;;;;;5049471;28;20032;-76
2023/02/15 02:37:10;;;;;;;45.40;17.03;;;;;;;;;;5049686;28;20115;-75
2023/02/15 02:40:12;;;;;;;47.03;16.53;;;;;;;;;;5035711;28;20021;-75
2023/02/15 02:42:42;;;;;;;51.65;19.20;;;;;;;;;;4979435;28;20041;-75
2023/02/15 02:45:37;;;;;;;48.87;17.40;;;;;;;;;;5030273;28;20037;-75
2023/02/15 02:48:26;;;;;;;49.10;17.43;;;;;;;;;;5005730;28;20072;-76
2023/02/15 02:50:52;;;;;;;50.50;18.67;;;;;;;;;;5030174;28;20024;-74
2023/02/15 02:53:17;;;;;;;43.43;16.70;;;;;;;;;;5030096;28;20037;-75
2023/02/15 02:55:49;;;;;;;52.30;19.17;;;;;;;;;;5029032;28;20029;-76
2023/02/15 02:58:27;;;;;;;43.65;17.17;;;;;;;;;;5028816;28;20051;-76
2023/02/15 03:01:14;;;;;;;46.97;17.80;;;;;;;;;;5029861;28;20105;-76
2023/02/15 03:03:48;;;;;;;55.53;17.90;;;;;;;;;;5028233;28;20041;-75
2023/02/15 03:06:23;;;;;;;59.33;19.87;;;;;;;;;;5028731;28;20052;-75
2023/02/15 03:08:57;;;;;;;52.93;19.00;;;;;;;;;;5038754;28;20047;-75
2023/02/15 03:11:22;;;;;;;46.27;18.90;;;;;;;;;;5029822;28;20036;-75
2023/02/15 03:13:49;;;;;;;56.13;17.93;;;;;;;;;;5030119;28;20533;-75
2023/02/15 03:16:26;;;;;;;47.67;17.77;;;;;;;;;;5029478;28;20075;-74
2023/02/15 03:18:57;;;;;;;47.53;18.97;;;;;;;;;;5029503;28;20033;-76
2023/02/15 03:22:03;;;;;;;51.17;18.67;;;;;;;;;;5029242;28;20040;-75
2023/02/15 03:24:35;;;;;;;51.53;18.23;;;;;;;;;;5029529;28;20105;-75
2023/02/15 03:27:07;;;;;;;51.58;18.92;;;;;;;;;;5027927;28;20017;-74
2023/02/15 03:29:34;;;;;;;47.50;17.53;;;;;;;;;;5044398;28;20036;-76
2023/02/15 03:32:05;;;;;;;50.23;18.47;;;;;;;;;;5056474;28;20116;-77
2023/02/15 03:34:30;;;;;;;47.53;19.37;;;;;;;;;;5033776;28;20372;-75
2023/02/15 03:37:04;;;;;;;44.90;18.27;;;;;;;;;;5028520;28;20116;-76
2023/02/15 03:39:38;;;;;;;45.23;17.60;;;;;;;;;;5044268;28;20031;-75
2023/02/15 03:42:21;;;;;;;48.57;18.80;;;;;;;;;;5051897;28;20049;-75
2023/02/15 03:45:09;;;;;;;51.93;20.17;;;;;;;;;;5053660;28;20421;-74
2023/02/15 03:47:38;;;;;;;47.80;18.80;;;;;;;;;;5052264;28;20208;-75
2023/02/15 03:53:00;;;;;;;44.83;16.77;;;;;;;;;;5053950;28;20051;-74
2023/02/15 03:55:28;;;;;;;50.80;18.50;;;;;;;;;;5053381;28;20021;-75
2023/02/15 04:03:42;;;;;;;53.03;20.73;;;;;;;;;;5053801;28;20036;-75
2023/02/15 04:06:09;;;;;;;56.53;19.97;;;;;;;;;;5053239;28;20120;-75
2023/02/15 04:11:18;;;;;;;57.10;21.17;;;;;;;;;;5053222;28;20135;-75
2023/02/15 04:13:44;;;;;;;49.80;20.43;;;;;;;;;;5051884;28;20021;-75
2023/02/15 04:16:09;;;;;;;52.97;20.00;;;;;;;;;;5052066;28;20037;-75
2023/02/15 04:26:54;;;;;;;60.03;21.33;;;;;;;;;;5053344;28;20136;-75
2023/02/15 04:29:20;;;;;;;59.53;19.93;;;;;;;;;;5052781;28;20543;-74
2023/02/15 04:31:47;;;;;;;62.90;22.13;;;;;;;;;;5052789;28;20110;-75
2023/02/15 04:34:13;;;;;;;58.80;19.87;;;;;;;;;;5052872;28;20025;-75
2023/02/15 04:36:39;;;;;;;59.00;20.60;;;;;;;;;;5051342;28;20032;-75
2023/02/15 04:39:05;;;;;;;53.27;20.30;;;;;;;;;;5051405;28;20052;-76
2023/02/15 04:41:30;;;;;;;54.03;20.50;;;;;;;;;;5051163;28;20061;-75
2023/02/15 04:43:57;;;;;;;55.27;19.80;;;;;;;;;;5053034;28;20082;-73
2023/02/15 04:46:22;;;;;;;60.57;20.23;;;;;;;;;;5050554;28;20033;-76
2023/02/15 04:48:48;;;;;;;49.17;18.37;;;;;;;;;;5051045;28;20044;-75
2023/02/15 04:51:13;;;;;;;55.63;20.90;;;;;;;;;;5051773;28;20366;-75
2023/02/15 04:53:39;;;;;;;52.73;19.73;;;;;;;;;;5050900;28;20052;-74
2023/02/15 04:56:04;;;;;;;49.63;18.37;;;;;;;;;;5052245;28;20373;-77
2023/02/15 04:58:30;;;;;;;52.57;19.00;;;;;;;;;;5051040;28;20112;-75
2023/02/15 05:00:56;;;;;;;55.90;20.07;;;;;;;;;;5052224;28;20032;-75
2023/02/15 05:03:22;;;;;;;50.47;17.93;;;;;;;;;;5051749;28;20055;-73
2023/02/15 05:05:47;;;;;;;52.57;18.83;;;;;;;;;;5051933;28;20037;-74
2023/02/15 05:08:13;;;;;;;74.27;23.67;;;;;;;;;;5050061;28;20057;-74
2023/02/15 05:10:40;;;;;;;49.07;18.33;;;;;;;;;;5050377;28;20112;-74
2023/02/15 05:13:05;;;;;;;53.63;18.90;;;;;;;;;;5050249;28;20429;-76
2023/02/15 05:15:31;;;;;;;51.10;18.57;;;;;;;;;;5055617;28;20125;-73
2023/02/15 05:17:56;;;;;;;57.17;19.40;;;;;;;;;;5070926;28;20020;-76
2023/02/15 05:20:22;;;;;;;52.40;18.70;;;;;;;;;;5071829;28;20495;-75
2023/02/15 05:22:47;;;;;;;57.23;18.90;;;;;;;;;;5071835;28;20043;-75
2023/02/15 05:30:41;;;;;;;49.20;18.03;;;;;;;;;;5071997;28;20105;-75
2023/02/15 05:33:07;;;;;;;48.67;18.33;;;;;;;;;;5070068;28;20476;-77
2023/02/15 05:35:34;;;;;;;54.57;19.50;;;;;;;;;;5071653;28;20468;-75
2023/02/15 05:37:59;;;;;;;49.73;17.50;;;;;;;;;;5068414;28;20123;-75
2023/02/15 05:40:26;;;;;;;54.53;18.17;;;;;;;;;;5051672;28;20136;-77
2023/02/15 05:42:52;;;;;;;64.83;19.03;;;;;;;;;;5050616;28;20039;-75
2023/02/15 05:45:17;;;;;;;57.23;19.33;;;;;;;;;;5051590;28;20112;-75
2023/02/15 05:47:43;;;;;;;66.27;18.73;;;;;;;;;;5049809;28;20128;-76
2023/02/15 05:50:10;;;;;;;57.27;17.97;;;;;;;;;;5045477;28;20447;-76
2023/02/15 05:52:35;;;;;;;52.63;18.40;;;;;;;;;;5038156;28;20040;-76
2023/02/15 05:55:02;;;;;;;50.90;17.57;;;;;;;;;;5041187;28;20056;-76
2023/02/15 05:57:28;;;;;;;44.77;16.20;;;;;;;;;;5046973;28;20684;-75
2023/02/15 05:59:54;;;;;;;55.57;18.63;;;;;;;;;;5050504;28;20056;-77
2023/02/15 06:02:19;;;;;;;45.93;16.70;;;;;;;;;;5049680;28;20521;-74
2023/02/15 06:04:45;;;;;;;52.97;17.07;;;;;;;;;;5037838;28;20397;-75
2023/02/15 06:07:10;;;;;;;48.50;18.73;;;;;;;;;;5030578;28;20022;-74
2023/02/15 06:09:36;;;;;;;48.80;16.47;;;;;;;;;;5043937;28;20529;-77
2023/02/15 06:12:01;;;;;;;53.53;18.53;;;;;;;;;;5039144;28;20036;-78
2023/02/15 06:14:27;;;;;;;48.60;17.40;;;;;;;;;;5038169;28;20029;-77
2023/02/15 06:16:52;;;;;;;58.00;17.47;;;;;;;;;;5048381;28;20065;-78
2023/02/15 06:19:19;;;;;;;45.13;16.33;;;;;;;;;;5044540;28;20041;-76
2023/02/15 06:21:45;;;;;;;49.77;17.80;;;;;;;;;;5035481;28;20030;-76
2023/02/15 06:24:10;;;;;;;46.70;16.13;;;;;;;;;;5034900;28;20082;-77
2023/02/15 06:26:36;;;;;;;55.13;16.30;;;;;;;;;;5042774;28;20037;-77
2023/02/15 06:29:01;;;;;;;49.73;15.90;;;;;;;;;;5042536;28;20025;-77
2023/02/15 06:31:27;;;;;;;48.73;16.73;;;;;;;;;;5040974;28;20048;-79
2023/02/15 06:34:00;;;;;;;47.27;14.80;;;;;;;;;;5043464;28;20456;-76
2023/02/15 06:36:25;;;;;;;46.70;16.20;;;;;;;;;;5046073;28;20024;-77
2023/02/15 06:38:51;;;;;;;51.53;17.40;;;;;;;;;;5039012;28;20028;-78
2023/02/15 06:41:16;;;;;;;61.30;17.60;;;;;;;;;;5041586;28;20063;-77
2023/02/15 06:43:42;;;;;;;45.00;16.70;;;;;;;;;;5038630;28;20041;-77
2023/02/15 06:46:07;;;;;;;39.83;14.73;;;;;;;;;;5035544;28;20466;-75
2023/02/15 06:48:33;;;;;;;51.63;15.80;;;;;;;;;;5044496;28;20033;-77
2023/02/15 06:50:59;;;;;;;48.93;15.70;;;;;;;;;;5043084;28;20098;-77
2023/02/15 06:53:24;;;;;;;52.47;16.77;;;;;;;;;;5046200;28;20024;-78
2023/02/15 06:55:50;;;;;;;53.20;17.10;;;;;;;;;;5043398;28;20037;-78
2023/02/15 06:58:16;;;;;;;44.57;15.63;;;;;;;;;;5039272;28;20033;-81
2023/02/15 07:00:41;;;;;;;50.40;16.40;;;;;;;;;;5040041;28;20033;-77
2023/02/15 07:03:22;;;;;;;49.40;19.10;;;;;;;;;;5036605;28;20039;-80
2023/02/15 07:05:59;;;;;;;50.60;15.87;;;;;;;;;;5043863;28;20024;-79
2023/02/15 07:08:33;;;;;;;49.17;16.70;;;;;;;;;;5039344;28;20063;-78
2023/02/15 07:13:46;;;;;;;46.87;16.77;;;;;;;;;;5054643;28;20039;-79
2023/02/15 07:16:13;;;;;;;48.77;15.23;;;;;;;;;;5032431;28;20508;-79
2023/02/15 07:18:39;;;;;;;47.70;16.60;;;;;;;;;;5044140;28;20430;-77
2023/02/15 07:21:08;;;;;;;45.40;14.53;;;;;;;;;;5042595;28;20037;-78
2023/02/15 07:23:38;;;;;;;47.13;15.93;;;;;;;;;;5046073;28;20032;-79
2023/02/15 07:26:05;;;;;;;49.33;15.57;;;;;;;;;;5053453;28;20377;-80
2023/02/15 07:28:32;;;;;;;44.10;15.13;;;;;;;;;;5044153;28;20050;-79
2023/02/15 07:30:58;;;;;;;46.27;15.67;;;;;;;;;;5044845;28;20548;-78
2023/02/15 07:33:23;;;;;;;51.07;16.37;;;;;;;;;;5047342;28;20071;-78
2023/02/15 07:35:51;;;;;;;48.83;15.20;;;;;;;;;;5048392;28;20056;-76
2023/02/15 07:38:18;;;;;;;41.80;14.70;;;;;;;;;;5040749;28;20045;-77
2023/02/15 07:40:44;;;;;;;42.40;15.60;;;;;;;;;;5047745;28;20109;-78
2023/02/15 07:43:11;;;;;;;51.30;16.00;;;;;;;;;;5044117;28;20037;-79
2023/02/15 07:45:38;;;;;;;53.73;16.87;;;;;;;;;;5043779;28;20026;-78
2023/02/15 07:48:06;;;;;;;51.67;17.03;;;;;;;;;;5022847;28;20047;-78
2023/02/15 07:50:34;;;;;;;55.87;17.20;;;;;;;;;;5040981;28;20182;-79
2023/02/15 07:53:05;;;;;;;44.33;15.27;;;;;;;;;;5042964;28;20408;-78
2023/02/15 07:55:31;;;;;;;49.93;16.73;;;;;;;;;;5035463;28;20039;-78
2023/02/15 07:57:56;;;;;;;46.57;15.47;;;;;;;;;;5045202;28;20492;-77
2023/02/15 08:00:24;;;;;;;45.33;15.67;;;;;;;;;;5038277;28;20041;-77
2023/02/15 08:03:14;;;;;;;44.37;15.47;;;;;;;;;;5036826;28;20048;-78
2023/02/15 08:05:46;;;;;;;48.80;15.47;;;;;;;;;;5040973;28;20038;-78
2023/02/15 08:08:29;;;;;;;41.00;14.80;;;;;;;;;;5026065;28;20037;-78
2023/02/15 08:11:25;;;;;;;40.67;14.23;;;;;;;;;;5040999;28;20038;-78
2023/02/15 08:13:53;;;;;;;41.53;14.87;;;;;;;;;;5042195;28;20484;-78
2023/02/15 08:16:47;;;;;;;40.53;14.57;;;;;;;;;;5043862;28;20488;-79
2023/02/15 08:19:20;;;;;;;39.23;13.00;;;;;;;;;;5039318;28;20041;-77
2023/02/15 08:21:48;;;;;;;45.73;14.97;;;;;;;;;;5041458;28;20556;-79
2023/02/15 08:24:17;;;;;;;44.50;14.73;;;;;;;;;;5043868;28;20044;-77
2023/02/15 08:26:47;;;;;;;41.77;15.67;;;;;;;;;;5043494;28;20120;-78
2023/02/15 08:29:14;;;;;;;44.93;13.70;;;;;;;;;;5047948;28;20465;-79
2023/02/15 08:31:41;;;;;;;38.63;13.33;;;;;;;;;;5041529;28;20092;-80
2023/02/15 08:34:08;;;;;;;42.17;14.00;;;;;;;;;;5041959;28;20029;-77
2023/02/15 08:36:33;;;;;;;38.87;13.63;;;;;;;;;;5044500;28;20139;-77
2023/02/15 08:39:01;;;;;;;44.40;13.57;;;;;;;;;;5045928;28;20123;-78
2023/02/15 08:41:30;;;;;;;45.00;15.53;;;;;;;;;;5044888;28;20089;-76
2023/02/15 08:43:57;;;;;;;46.87;14.90;;;;;;;;;;5054260;28;20544;-77
2023/02/15 08:46:25;;;;;;;46.67;14.90;;;;;;;;;;5041896;28;20056;-79
2023/02/15 08:48:51;;;;;;;41.43;14.30;;;;;;;;;;5040277;28;20061;-77
2023/02/15 08:51:19;;;;;;;43.80;14.93;;;;;;;;;;5041286;28;20356;-77
2023/02/15 08:53:51;;;;;;;39.63;14.70;;;;;;;;;;5039196;28;20047;-79
2023/02/15 08:56:18;;;;;;;46.70;15.73;;;;;;;;;;5041494;28;20401;-79
2023/02/15 08:58:44;;;;;;;46.37;14.97;;;;;;;;;;5038196;28;20546;-77
2023/02/15 09:01:19;;;;;;;50.23;14.90;;;;;;;;;;5043022;28;20040;-77
2023/02/15 09:03:52;;;;;;;44.53;15.33;;;;;;;;;;5027531;28;20032;-77
2023/02/15 09:06:19;;;;;;;41.47;13.60;;;;;;;;;;5051335;28;20111;-78
2023/02/15 09:08:45;;;;;;;53.47;19.37;;;;;;;;;;5042580;28;20045;-74
2023/02/15 09:11:22;;;;;;;42.83;15.60;;;;;;;;;;5039387;28;20044;-76
2023/02/15 09:13:49;;;;;;;54.20;17.47;;;;;;;;;;5041923;28;20025;-77
2023/02/15 09:16:16;;;;;;;46.90;15.47;;;;;;;;;;5042945;28;20148;-74
2023/02/15 09:18:43;;;;;;;40.73;15.20;;;;;;;;;;5039010;28;20546;-76
2023/02/15 09:21:14;;;;;;;45.73;15.10;;;;;;;;;;5063238;28;20460;-77
2023/02/15 09:23:41;;;;;;;51.95;14.48;;;;;;;;;;5036539;28;20018;-75
2023/02/15 09:26:12;;;;;;;40.07;13.20;;;;;;;;;;5036429;28;20141;-75
2023/02/15 09:28:38;;;;;;;45.07;15.57;;;;;;;;;;5041701;28;20029;-75
2023/02/15 09:31:13;;;;;;;42.67;13.57;;;;;;;;;;5038759;28;20082;-76
2023/02/15 09:33:40;;;;;;;40.40;13.80;;;;;;;;;;5032727;28;20021;-76
2023/02/15 09:36:13;;;;;;;37.87;14.40;;;;;;;;;;5042042;28;20029;-78
2023/02/15 09:38:39;;;;;;;39.70;13.83;;;;;;;;;;5045428;28;20042;-76
2023/02/15 09:41:47;;;;;;;43.27;14.20;;;;;;;;;;5045885;28;20432;-76
2023/02/15 09:44:32;;;;;;;48.37;13.47;;;;;;;;;;5013951;28;20662;-76
2023/02/15 09:47:23;;;;;;;40.63;13.47;;;;;;;;;;5030515;28;20520;-77
2023/02/15 09:50:16;;;;;;;36.30;13.20;;;;;;;;;;5039286;28;20178;-79
2023/02/15 09:53:03;;;;;;;45.27;15.10;;;;;;;;;;5042201;28;20020;-78
2023/02/15 09:55:51;;;;;;;39.73;13.87;;;;;;;;;;5038408;28;20543;-79
2023/02/15 09:58:40;;;;;;;43.40;15.27;;;;;;;;;;5041014;28;20021;-77
2023/02/15 10:01:21;;;;;;;44.17;14.20;;;;;;;;;;5043667;28;20079;-81
2023/02/15 10:04:08;;;;;;;42.73;15.43;;;;;;;;;;5035041;28;20310;-79
2023/02/15 10:06:46;;;;;;;40.67;13.90;;;;;;;;;;5040520;28;20025;-80
2023/02/15 10:09:44;;;;;;;38.70;14.67;;;;;;;;;;5053870;28;20033;-78
2023/02/15 10:12:25;;;;;;;42.80;14.80;;;;;;;;;;5044799;28;20048;-79
2023/02/15 10:15:07;;;;;;;43.77;14.70;;;;;;;;;;5041686;28;20085;-79
2023/02/15 10:17:45;;;;;;;55.27;17.77;;;;;;;;;;5043171;28;20368;-76
2023/02/15 10:20:31;;;;;;;40.37;15.20;;;;;;;;;;5038608;28;20041;-76
2023/02/15 10:23:18;;;;;;;46.20;15.33;;;;;;;;;;5039791;28;20030;-78
2023/02/15 10:26:03;;;;;;;40.80;16.60;;;;;;;;;;5042847;28;20029;-79
2023/02/15 10:28:56;;;;;;;43.17;14.57;;;;;;;;;;5040331;28;20144;-77
2023/02/15 10:31:35;;;;;;;47.63;15.33;;;;;;;;;;5038014;28;20037;-77
2023/02/15 10:34:14;;;;;;;46.70;15.40;;;;;;;;;;5042602;28;20130;-81
2023/02/15 10:37:04;;;;;;;35.27;13.63;;;;;;;;;;5038561;28;20033;-77
2023/02/15 10:40:07;;;;;;;43.40;15.50;;;;;;;;;;5050206;28;20032;-80
2023/02/15 10:43:04;;;;;;;41.90;15.57;;;;;;;;;;5044241;28;20465;-77
2023/02/15 10:45:53;;;;;;;54.87;15.60;;;;;;;;;;5024964;28;20530;-79
2023/02/15 10:48:34;;;;;;;40.73;14.83;;;;;;;;;;5043318;28;20041;-81
2023/02/15 10:51:08;;;;;;;40.07;14.03;;;;;;;;;;5043399;28;20036;-78
2023/02/15 10:53:58;;;;;;;49.87;15.73;;;;;;;;;;5058301;28;20118;-77
2023/02/15 10:56:36;;;;;;;51.13;18.93;;;;;;;;;;5040432;28;20481;-77
2023/02/15 10:59:23;;;;;;;50.70;19.27;;;;;;;;;;5039128;28;20032;-77
2023/02/15 11:02:20;;;;;;;40.43;15.63;;;;;;;;;;5035535;28;20029;-79
2023/02/15 11:04:54;;;;;;;44.33;16.03;;;;;;;;;;5035673;28;20082;-78
2023/02/15 11:07:29;;;;;;;40.27;15.17;;;;;;;;;;5049681;28;20067;-76
2023/02/15 11:10:24;;;;;;;46.90;15.03;;;;;;;;;;5046630;28;20029;-78
2023/02/15 11:12:49;;;;;;;40.53;15.53;;;;;;;;;;5038097;28;20036;-78
2023/02/15 11:15:24;;;;;;;37.17;13.83;;;;;;;;;;5037063;28;20017;-77
2023/02/15 11:18:06;;;;;;;47.07;14.30;;;;;;;;;;5045870;28;20480;-78
2023/02/15 11:21:01;;;;;;;42.80;13.60;;;;;;;;;;5045247;28;20100;-82
2023/02/15 11:23:27;;;;;;;33.50;13.47;;;;;;;;;;5022678;28;20033;-80
2023/02/15 11:25:58;;;;;;;39.93;13.33;;;;;;;;;;5045291;28;20579;-80
2023/02/15 11:28:47;;;;;;;39.58;14.15;;;;;;;;;;5044220;28;20052;-77
2023/02/15 11:31:24;;;;;;;41.43;15.70;;;;;;;;;;5050960;28;20039;-79
2023/02/15 11:33:56;;;;;;;43.70;14.97;;;;;;;;;;5028679;28;20032;-77
2023/02/15 11:36:27;;;;;;;44.38;14.70;;;;;;;;;;5043807;28;20087;-78
2023/02/15 11:39:04;;;;;;;38.78;13.27;;;;;;;;;;5034768;28;20031;-80
2023/02/15 11:41:37;;;;;;;33.97;13.97;;;;;;;;;;5044097;28;20522;-80
2023/02/15 11:44:15;;;;;;;51.30;15.73;;;;;;;;;;5047078;28;20043;-80
2023/02/15 11:46:41;;;;;;;35.97;13.83;;;;;;;;;;5046706;28;20335;-78
2023/02/15 11:49:23;;;;;;;37.43;13.27;;;;;;;;;;5045298;28;20021;-80
2023/02/15 11:51:50;;;;;;;36.72;13.77;;;;;;;;;;5046395;28;21418;-80
2023/02/15 11:54:20;;;;;;;37.40;13.70;;;;;;;;;;5040238;28;20056;-79
2023/02/15 11:56:51;;;;;;;37.27;14.67;;;;;;;;;;5059939;28;20098;-79
2023/02/15 11:59:29;;;;;;;33.07;14.63;;;;;;;;;;5042892;28;20029;-80
2023/02/15 12:01:55;;;;;;;37.40;14.73;;;;;;;;;;5049118;28;20029;-79
2023/02/15 12:04:26;;;;;;;40.37;14.90;;;;;;;;;;5046775;28;20545;-78
2023/02/15 12:06:57;;;;;;;35.77;13.17;;;;;;;;;;5048627;28;20025;-80
2023/02/15 12:09:34;;;;;;;41.70;14.50;;;;;;;;;;5047666;28;20071;-81
2023/02/15 12:12:21;;;;;;;35.93;14.07;;;;;;;;;;5065719;28;20033;-79
2023/02/15 12:14:49;;;;;;;39.10;14.67;;;;;;;;;;5047004;28;20073;-81
2023/02/15 12:17:16;;;;;;;45.07;15.13;;;;;;;;;;5047505;28;20024;-78
2023/02/15 12:19:45;;;;;;;36.00;15.17;;;;;;;;;;5047991;28;20037;-80
2023/02/15 12:22:32;;;;;;;40.67;16.50;;;;;;;;;;5040427;28;20029;-81
2023/02/15 12:27:43;;;;;;;36.13;14.50;;;;;;;;;;5048156;28;20045;-82
2023/02/15 12:30:27;;;;;;;31.97;14.23;;;;;;;;;;5042003;28;20172;-81
2023/02/15 12:33:08;;;;;;;36.90;14.37;;;;;;;;;;5048994;28;20104;-82
2023/02/15 12:35:37;;;;;;;34.30;13.53;;;;;;;;;;5047761;28;20044;-81
2023/02/15 12:38:09;;;;;;;33.90;12.73;;;;;;;;;;5044798;28;20082;-81
2023/02/15 12:40:39;;;;;;;36.28;13.43;;;;;;;;;;5042600;28;20087;-80
2023/02/15 12:43:25;;;;;;;31.53;13.90;;;;;;;;;;5045793;28;20445;-81
2023/02/15 12:45:51;;;;;;;31.13;12.83;;;;;;;;;;5045801;28;20064;-79
2023/02/15 12:48:19;;;;;;;31.97;12.67;;;;;;;;;;5046971;28;20097;-80
2023/02/15 12:50:51;;;;;;;29.30;12.43;;;;;;;;;;5043583;28;20061;-81
2023/02/15 12:53:35;;;;;;;32.60;13.40;;;;;;;;;;5046613;28;20464;-82
2023/02/15 12:56:05;;;;;;;37.53;13.63;;;;;;;;;;5042722;28;20029;-80
2023/02/15 12:58:36;;;;;;;34.87;12.33;;;;;;;;;;5044746;28;20052;-82
2023/02/15 13:01:08;;;;;;;31.70;13.80;;;;;;;;;;5044748;28;20028;-81
2023/02/15 13:03:34;;;;;;;39.17;14.35;;;;;;;;;;5044341;28;20032;-79
2023/02/15 13:06:02;;;;;;;32.37;13.17;;;;;;;;;;5047184;28;20456;-79
2023/02/15 13:08:33;;;;;;;28.90;12.53;;;;;;;;;;5049090;28;20021;-79
2023/02/15 13:11:03;;;;;;;33.10;13.03;;;;;;;;;;5043869;28;20070;-81
2023/02/15 13:13:34;;;;;;;33.93;13.77;;;;;;;;;;5046675;28;20076;-81
2023/02/15 13:16:05;;;;;;;29.85;13.30;;;;;;;;;;5049668;28;20370;-82
2023/02/15 13:18:37;;;;;;;26.33;13.10;;;;;;;;;;5049143;28;20039;-80
2023/02/15 13:21:10;;;;;;;31.03;14.03;;;;;;;;;;5049668;28;20785;-80
2023/02/15 13:23:39;;;;;;;30.47;11.63;;;;;;;;;;5046136;28;20059;-79
2023/02/15 13:26:11;;;;;;;30.50;12.93;;;;;;;;;;5047535;28;20124;-82
2023/02/15 13:28:44;;;;;;;31.75;12.30;;;;;;;;;;5053550;28;20063;-79
2023/02/15 13:31:20;;;;;;;35.43;13.13;;;;;;;;;;5066798;28;20036;-82
2023/02/15 13:34:11;;;;;;;30.43;13.53;;;;;;;;;;5035517;28;20037;-80
2023/02/15 13:36:57;;;;;;;32.60;13.77;;;;;;;;;;5050808;28;20058;-81
2023/02/15 13:39:40;;;;;;;37.60;15.00;;;;;;;;;;5047473;28;20033;-81
2023/02/15 13:42:24;;;;;;;48.80;15.07;;;;;;;;;;5046229;28;20116;-81
2023/02/15 13:45:11;;;;;;;31.07;13.67;;;;;;;;;;5056734;28;20029;-82
2023/02/15 13:47:47;;;;;;;36.00;13.57;;;;;;;;;;5030079;28;20101;-82
2023/02/15 13:50:29;;;;;;;30.67;13.17;;;;;;;;;;5046135;28;20033;-81
2023/02/15 13:53:06;;;;;;;30.85;13.70;;;;;;;;;;5066450;28;20219;-80
2023/02/15 13:55:36;;;;;;;29.77;14.43;;;;;;;;;;5049646;28;20037;-80
2023/02/15 13:58:17;;;;;;;34.27;13.80;;;;;;;;;;5044126;28;20012;-78
2023/02/15 14:01:01;;;;;;;29.17;14.07;;;;;;;;;;5044262;28;20490;-80
2023/02/15 14:03:45;;;;;;;29.67;12.80;;;;;;;;;;5050778;28;20031;-78
2023/02/15 14:06:22;;;;;;;35.43;16.27;;;;;;;;;;5046013;28;20115;-78
2023/02/15 14:08:54;;;;;;;34.50;12.83;;;;;;;;;;5062049;28;20043;-79
2023/02/15 14:11:52;;;;;;;33.42;14.25;;;;;;;;;;5046472;28;20044;-80
2023/02/15 14:14:48;;;;;;;33.60;14.03;;;;;;;;;;5045867;28;20448;-82
2023/02/15 14:17:35;;;;;;;33.87;14.37;;;;;;;;;;5064374;28;20304;-79
2023/02/15 14:20:30;;;;;;;28.83;13.33;;;;;;;;;;5046150;28;20033;-80
2023/02/15 14:23:17;;;;;;;32.00;13.37;;;;;;;;;;5045213;28;20049;-80
2023/02/15 14:26:03;;;;;;;33.63;14.20;;;;;;;;;;5056690;28;20079;-82
2023/02/15 14:28:43;;;;;;;27.77;13.63;;;;;;;;;;5049141;28;20755;-82
2023/02/15 14:31:15;;;;;;;36.20;15.37;;;;;;;;;;5043408;28;20123;-82
2023/02/15 14:33:56;;;;;;;34.63;14.40;;;;;;;;;;5043792;28;20041;-80
2023/02/15 14:36:23;;;;;;;31.38;14.27;;;;;;;;;;5047372;28;20144;-78
2023/02/15 14:38:52;;;;;;;40.73;15.10;;;;;;;;;;5045353;28;20029;-79
2023/02/15 14:41:17;;;;;;;41.17;15.20;;;;;;;;;;5062513;28;20043;-82
2023/02/15 14:44:22;;;;;;;39.13;14.20;;;;;;;;;;5046502;28;20413;-79
2023/02/15 14:46:56;;;;;;;32.93;15.67;;;;;;;;;;5047751;28;20033;-79
2023/02/15 14:49:23;;;;;;;39.47;15.50;;;;;;;;;;5041606;28;20150;-81
2023/02/15 14:52:01;;;;;;;34.83;15.23;;;;;;;;;;5050657;28;20029;-82
2023/02/15 14:54:29;;;;;;;35.83;15.70;;;;;;;;;;5043008;28;20048;-80
2023/02/15 14:57:06;;;;;;;38.43;14.83;;;;;;;;;;5042871;28;20055;-79
2023/02/15 14:59:38;;;;;;;44.50;15.30;;;;;;;;;;5048230;28;20059;-80
2023/02/15 15:02:13;;;;;;;35.33;14.83;;;;;;;;;;5042240;28;20025;-77
2023/02/15 15:04:56;;;;;;;39.73;15.07;;;;;;;;;;5059306;28;20171;-79
2023/02/15 15:07:24;;;;;;;32.57;14.70;;;;;;;;;;5049133;28;20032;-82
2023/02/15 15:10:25;;;;;;;35.30;15.03;;;;;;;;;;5045509;28;20116;-81
2023/02/15 15:12:58;;;;;;;34.03;14.43;;;;;;;;;;5044635;28;20460;-78
2023/02/15 15:15:29;;;;;;;32.80;14.80;;;;;;;;;;5045940;28;20108;-79
2023/02/15 15:18:10;;;;;;;42.05;16.63;;;;;;;;;;5041153;28;20067;-80
2023/02/15 15:20:47;;;;;;;37.72;14.93;;;;;;;;;;5040247;28;20032;-78